Welberg, Netherlands
Current Conditions -  °F | °C
As of 1:25 PM on Sunday 23 Nov 2014 (Local Time) from EHWO Reporting Station
Overcast Overcast  
Wind Chill: 59°   Ceiling: 17000
Heat Index: 59°   Visibility: 6mi
Dew Point: 52°   Wind: 5mph
Humidity: 77%   Direction: 160°SSE
Pressure: 29.94"   Gusts: NA
Location:  51.58°N, 4.33°E
Report Text: EHWO 231225Z AUTO 16004KT 9999 OVC170 15/11 Q1014 BLU
Loading
Personal Weather Stations






























Interactive Weather Map New forecast layout! Learn more

10-Day Weather Forecast

Advertisements
Track Severe Weather on mobile